Time;durP1;ratioP1;P1;durP2;ratioP2;P2;SDS_P1;SDS_P2;PMS_P1;PMS_P2;Temp;Humidity;BMP_temperature;BMP_pressure;BME280_temperature;BME280_humidity;BME280_pressure;Samples;Min_cycle;Max_cycle;Signal;HPM_P1;HPM_P2
2022/10/27 00:02:17;;;;;;;35.22;8.63;;;;;;;13.18;100.00;98863.19;5093208;28;20031;-87
2022/10/27 00:04:42;;;;;;;49.83;9.70;;;;;;;13.09;100.00;98870.53;5094283;28;20016;-86
2022/10/27 00:07:08;;;;;;;59.67;10.45;;;;;;;13.09;100.00;98872.34;5091675;28;20028;-89
2022/10/27 00:09:34;;;;;;;39.78;9.23;;;;;;;13.16;100.00;98870.47;5092198;28;20085;-88
2022/10/27 00:12:00;;;;;;;62.67;10.48;;;;;;;13.14;100.00;98865.44;5074739;28;20045;-88
2022/10/27 00:14:28;;;;;;;60.08;10.43;;;;;;;13.15;100.00;98871.50;5092908;28;20389;-86
2022/10/27 00:16:55;;;;;;;61.40;11.20;;;;;;;13.23;100.00;98875.69;5091564;28;20024;-86
2022/10/27 00:19:23;;;;;;;52.45;9.82;;;;;;;13.20;100.00;98866.41;5091059;28;20709;-87
2022/10/27 00:21:50;;;;;;;41.30;8.60;;;;;;;13.26;100.00;98878.72;5092412;28;20527;-86
2022/10/27 00:24:17;;;;;;;46.33;8.55;;;;;;;13.13;100.00;98887.53;5092538;28;20077;-87
2022/10/27 00:26:43;;;;;;;47.08;9.13;;;;;;;13.22;100.00;98890.72;5091968;28;20139;-87
2022/10/27 00:29:08;;;;;;;48.88;8.95;;;;;;;13.16;100.00;98880.22;5095007;28;20103;-87
2022/10/27 00:31:34;;;;;;;47.78;9.30;;;;;;;13.07;100.00;98879.69;5092216;28;20077;-88
2022/10/27 00:33:59;;;;;;;50.10;9.90;;;;;;;13.19;100.00;98877.16;5092467;28;20028;-87
2022/10/27 00:36:25;;;;;;;47.90;9.88;;;;;;;13.23;100.00;98896.78;5093567;28;20031;-87
2022/10/27 00:38:57;;;;;;;46.60;9.20;;;;;;;13.23;100.00;98896.78;5095070;28;20031;-86
2022/10/27 00:41:27;;;;;;;45.38;9.50;;;;;;;13.21;100.00;98894.38;5094523;28;20031;-87
2022/10/27 00:43:57;;;;;;;42.53;9.02;;;;;;;13.35;100.00;98899.50;5095267;28;20090;-87
2022/10/27 00:46:43;;;;;;;57.97;8.98;;;;;;;13.43;100.00;98894.81;5093597;28;20390;-86
2022/10/27 00:49:18;;;;;;;49.03;8.30;;;;;;;13.46;100.00;98893.56;5095587;28;20089;-88
2022/10/27 00:52:03;;;;;;;47.33;10.02;;;;;;;13.47;100.00;98895.19;5095022;28;20036;-88
2022/10/27 00:54:35;;;;;;;43.67;8.88;;;;;;;13.51;100.00;98891.09;5095318;28;20036;-86
2022/10/27 00:57:03;;;;;;;51.35;9.05;;;;;;;13.45;100.00;98894.59;5095733;28;20156;-87
2022/10/27 00:59:29;;;;;;;46.33;9.38;;;;;;;13.64;100.00;98881.44;5095082;28;20032;-87
2022/10/27 01:01:57;;;;;;;54.97;9.57;;;;;;;13.64;100.00;98886.72;5095223;28;20032;-90
2022/10/27 01:04:44;;;;;;;59.53;9.85;;;;;;;13.72;100.00;98883.78;5094504;28;20385;-87
2022/10/27 01:07:13;;;;;;;48.45;10.68;;;;;;;13.64;100.00;98884.09;5094256;28;20024;-88
2022/10/27 01:09:40;;;;;;;37.28;9.20;;;;;;;13.61;100.00;98893.22;5077975;28;20036;-89
2022/10/27 01:12:05;;;;;;;47.88;9.73;;;;;;;13.64;100.00;98886.72;5078236;28;20051;-88
2022/10/27 01:14:31;;;;;;;43.25;10.15;;;;;;;13.72;100.00;98889.06;5095169;28;20111;-87
2022/10/27 01:17:25;;;;;;;54.10;11.93;;;;;;;13.69;100.00;98878.94;5096299;28;20032;-87
2022/10/27 01:20:15;;;;;;;57.13;11.32;;;;;;;13.63;100.00;98872.72;5093002;28;20142;-89
2022/10/27 01:23:12;;;;;;;51.55;10.93;;;;;;;13.61;100.00;98876.59;5093658;28;20024;-88
2022/10/27 01:25:53;;;;;;;50.20;10.43;;;;;;;13.77;100.00;98883.13;5061438;28;20477;-87
2022/10/27 01:29:08;;;;;;;60.60;11.27;;;;;;;13.84;100.00;98875.94;5093819;28;20051;-89
2022/10/27 01:31:58;;;;;;;36.92;8.77;;;;;;;13.91;100.00;98875.88;5016883;28;20040;-87
2022/10/27 01:34:45;;;;;;;33.65;9.32;;;;;;;13.88;100.00;98878.97;5093223;28;20473;-87
2022/10/27 01:37:32;;;;;;;40.17;8.90;;;;;;;13.77;100.00;98876.03;5092928;28;20038;-87
2022/10/27 01:40:05;;;;;;;37.67;9.07;;;;;;;13.83;100.00;98879.59;5094687;28;20081;-87
2022/10/27 01:42:45;;;;;;;55.15;9.93;;;;;;;13.74;100.00;98880.94;5094712;28;20107;-86
2022/10/27 01:45:14;;;;;;;49.67;8.80;;;;;;;13.78;100.00;98876.84;5094066;28;20032;-87
2022/10/27 01:47:41;;;;;;;39.95;8.10;;;;;;;13.70;100.00;98875.28;5094003;28;20028;-90
2022/10/27 01:50:08;;;;;;;42.75;8.75;;;;;;;13.70;100.00;98875.28;5094737;28;20028;-89
2022/10/27 01:52:49;;;;;;;34.30;7.40;;;;;;;13.69;100.00;98876.31;5095101;28;20044;-88
2022/10/27 01:55:43;;;;;;;32.10;7.25;;;;;;;13.63;100.00;98882.47;5094049;28;20032;-90
2022/10/27 01:58:27;;;;;;;40.20;6.93;;;;;;;13.54;100.00;98874.03;5066483;28;20047;-91
2022/10/27 02:00:55;;;;;;;34.78;7.72;;;;;;;13.44;100.00;98887.72;5094259;28;20464;-88
2022/10/27 02:03:32;;;;;;;32.42;6.18;;;;;;;13.45;100.00;98884.06;5096444;28;20039;-87
2022/10/27 02:06:09;;;;;;;32.85;7.35;;;;;;;13.42;100.00;98873.91;5094518;28;20466;-87
2022/10/27 02:08:43;;;;;;;36.15;6.30;;;;;;;13.40;100.00;98875.97;5093734;28;20035;-86
2022/10/27 02:11:10;;;;;;;33.72;7.03;;;;;;;13.30;100.00;98871.19;5093163;28;20037;-88
2022/10/27 02:13:42;;;;;;;47.33;6.78;;;;;;;13.28;100.00;98874.03;5092587;28;20502;-88
2022/10/27 02:16:22;;;;;;;33.22;7.78;;;;;;;13.25;100.00;98873.63;5075961;28;20027;-86
2022/10/27 02:19:07;;;;;;;47.88;9.07;;;;;;;13.10;100.00;98868.69;5094166;28;20501;-90
2022/10/27 02:21:35;;;;;;;50.22;8.65;;;;;;;13.19;100.00;98870.06;5093241;28;20051;-87
2022/10/27 02:24:01;;;;;;;33.33;7.30;;;;;;;13.24;100.00;98872.03;5091460;28;20151;-86
2022/10/27 02:26:40;;;;;;;44.97;8.05;;;;;;;13.27;100.00;98872.41;5093909;28;20097;-88
2022/10/27 02:29:14;;;;;;;34.05;6.15;;;;;;;13.28;100.00;98860.84;5092181;28;20028;-86
2022/10/27 02:31:44;;;;;;;40.00;7.53;;;;;;;13.25;100.00;98856.00;5092673;28;20036;-87
2022/10/27 02:34:11;;;;;;;38.20;7.38;;;;;;;13.27;100.00;98864.50;5094098;28;20077;-88
2022/10/27 02:36:37;;;;;;;34.47;7.65;;;;;;;13.39;100.00;98864.59;5094320;28;20039;-88
2022/10/27 02:39:03;;;;;;;43.47;7.30;;;;;;;13.26;100.00;98865.53;5093860;28;20107;-87
2022/10/27 02:41:28;;;;;;;46.65;7.05;;;;;;;13.40;100.00;98865.41;5094202;28;20056;-88
2022/10/27 02:43:54;;;;;;;36.33;6.90;;;;;;;13.42;100.00;98871.28;5094626;28;20400;-87
2022/10/27 02:46:20;;;;;;;42.20;7.88;;;;;;;13.41;100.00;98869.66;5092909;28;20027;-88
2022/10/27 02:48:45;;;;;;;60.08;8.95;;;;;;;13.51;100.00;98862.09;5092921;28;20119;-87
2022/10/27 02:51:11;;;;;;;40.20;7.40;;;;;;;13.57;100.00;98861.22;5092710;28;20405;-89
2022/10/27 02:53:36;;;;;;;41.40;7.88;;;;;;;13.62;100.00;98857.13;5093518;28;22000;-89
2022/10/27 02:56:02;;;;;;;38.03;8.65;;;;;;;13.61;100.00;98855.50;5093900;28;20032;-87
2022/10/27 02:58:27;;;;;;;46.95;8.63;;;;;;;13.71;100.00;98861.06;5091814;28;20123;-85
2022/10/27 03:00:55;;;;;;;40.15;7.50;;;;;;;13.80;100.00;98859.78;5092964;28;20052;-87
2022/10/27 03:03:27;;;;;;;39.47;8.32;;;;;;;13.78;100.00;98855.72;5092459;28;20485;-88
2022/10/27 03:05:53;;;;;;;40.58;8.70;;;;;;;13.73;100.00;98843.19;5092438;28;20035;-87
2022/10/27 03:08:20;;;;;;;44.60;8.60;;;;;;;13.76;100.00;98840.13;5092361;28;20421;-88
2022/10/27 03:10:46;;;;;;;44.80;8.98;;;;;;;13.66;100.00;98839.84;5093570;28;20020;-88
2022/10/27 03:13:11;;;;;;;40.55;8.45;;;;;;;13.75;100.00;98845.63;5093452;28;20030;-87
2022/10/27 03:15:37;;;;;;;44.05;8.80;;;;;;;13.73;100.00;98847.69;5109352;28;20028;-86
2022/10/27 03:18:03;;;;;;;34.83;9.07;;;;;;;13.69;100.00;98842.03;5075499;28;20036;-87
2022/10/27 03:20:29;;;;;;;42.42;9.45;;;;;;;13.65;100.00;98831.09;5094110;28;20056;-87
2022/10/27 03:22:55;;;;;;;50.20;9.45;;;;;;;13.78;100.00;98840.72;5093858;28;20024;-89
2022/10/27 03:25:21;;;;;;;37.17;7.82;;;;;;;13.80;100.00;98843.13;5093521;28;20061;-86
2022/10/27 03:27:46;;;;;;;47.03;8.38;;;;;;;13.56;100.00;98835.88;5109108;28;20032;-86
2022/10/27 03:30:15;;;;;;;34.83;8.02;;;;;;;13.74;100.00;98844.81;5093495;28;20024;-88
2022/10/27 03:32:48;;;;;;;35.75;7.97;;;;;;;13.75;100.00;98841.13;5093510;28;20058;-89
2022/10/27 03:35:15;;;;;;;56.00;10.48;;;;;;;13.66;100.00;98843.28;5093269;28;20111;-87
2022/10/27 03:37:41;;;;;;;48.95;8.82;;;;;;;13.68;100.00;98843.06;5091458;28;20088;-87
2022/10/27 03:40:07;;;;;;;37.67;7.70;;;;;;;13.67;100.00;98831.72;5092358;28;20028;-89
2022/10/27 03:42:33;;;;;;;38.55;8.35;;;;;;;13.70;100.00;98835.72;5091656;28;20044;-87
2022/10/27 03:44:59;;;;;;;55.55;8.68;;;;;;;13.74;100.00;98844.81;5092905;28;20489;-88
2022/10/27 03:47:25;;;;;;;48.83;8.95;;;;;;;13.78;100.00;98839.91;5092622;28;20024;-88
2022/10/27 03:49:50;;;;;;;45.47;9.15;;;;;;;13.77;100.00;98844.38;5108170;28;20104;-87
2022/10/27 03:52:16;;;;;;;42.63;7.38;;;;;;;13.71;100.00;98845.25;5091194;28;20044;-86
2022/10/27 03:54:41;;;;;;;55.40;10.00;;;;;;;13.81;100.00;98850.81;5074746;28;20067;-88
2022/10/27 03:57:12;;;;;;;47.70;8.32;;;;;;;13.80;100.00;98849.22;5091536;28;20086;-87
2022/10/27 03:59:38;;;;;;;41.65;8.90;;;;;;;13.79;100.00;98847.59;5091229;28;20386;-86
2022/10/27 04:02:03;;;;;;;32.67;7.70;;;;;;;13.84;100.00;98842.47;5092228;28;20042;-87
2022/10/27 04:04:29;;;;;;;35.95;9.00;;;;;;;13.85;100.00;98840.63;5074666;28;20024;-88
2022/10/27 04:06:54;;;;;;;33.20;8.07;;;;;;;13.83;100.00;98830.31;5074302;28;20040;-87
2022/10/27 04:09:20;;;;;;;41.53;8.75;;;;;;;13.84;100.00;98839.84;5074584;28;20027;-87
2022/10/27 04:11:45;;;;;;;39.92;8.20;;;;;;;13.81;100.00;98819.16;5093401;28;20039;-86
2022/10/27 04:14:11;;;;;;;45.70;8.77;;;;;;;13.77;100.00;98823.28;5095942;28;20024;-86
2022/10/27 04:16:37;;;;;;;42.55;7.90;;;;;;;13.79;100.00;98829.13;5095225;28;20024;-87
2022/10/27 04:19:03;;;;;;;38.13;8.05;;;;;;;13.76;100.00;98826.13;5096272;28;20412;-88
2022/10/27 04:21:28;;;;;;;44.75;8.55;;;;;;;13.69;100.00;98820.91;5078000;28;20028;-87
2022/10/27 04:23:54;;;;;;;31.48;7.80;;;;;;;13.74;100.00;98807.88;5096987;28;20031;-86
2022/10/27 04:26:20;;;;;;;41.38;8.82;;;;;;;13.76;100.00;98811.13;5096581;28;20077;-87
2022/10/27 04:28:45;;;;;;;35.25;8.68;;;;;;;13.81;100.00;98816.53;5095446;28;20028;-88
2022/10/27 04:31:11;;;;;;;39.58;8.40;;;;;;;13.74;100.00;98812.34;5097276;28;20485;-87
2022/10/27 04:33:36;;;;;;;38.38;8.02;;;;;;;13.79;100.00;98810.66;5096835;28;20078;-86
2022/10/27 04:36:02;;;;;;;35.92;7.97;;;;;;;13.83;100.00;98811.00;5079072;28;20032;-90
2022/10/27 04:38:27;;;;;;;34.33;6.88;;;;;;;13.84;100.00;98804.72;5097803;28;20040;-86
2022/10/27 04:40:53;;;;;;;34.97;7.60;;;;;;;13.84;100.00;98802.06;5098007;28;20051;-86
2022/10/27 04:43:19;;;;;;;39.70;7.53;;;;;;;13.78;100.00;98803.78;5102273;28;20024;-86
2022/10/27 04:45:45;;;;;;;27.88;6.85;;;;;;;13.75;100.00;98793.66;5100369;28;20020;-86
2022/10/27 04:48:11;;;;;;;39.55;8.52;;;;;;;13.76;100.00;98797.94;5099463;28;20486;-87
2022/10/27 04:50:37;;;;;;;37.20;7.97;;;;;;;13.80;100.00;98804.38;5079414;28;20050;-86
2022/10/27 04:53:02;;;;;;;34.22;6.95;;;;;;;13.81;100.00;98800.69;5078816;28;20046;-87
2022/10/27 04:55:31;;;;;;;36.45;8.23;;;;;;;13.90;100.00;98805.66;5095782;28;20395;-87
2022/10/27 04:57:57;;;;;;;32.70;6.97;;;;;;;13.90;100.00;98803.03;5095054;28;20424;-87
2022/10/27 05:00:23;;;;;;;42.15;7.88;;;;;;;13.92;100.00;98808.88;5076620;28;20055;-89
2022/10/27 05:02:57;;;;;;;34.85;8.25;;;;;;;13.97;100.00;98811.69;5077302;28;20031;-88
2022/10/27 05:05:24;;;;;;;45.25;8.60;;;;;;;13.81;100.00;98811.25;5093639;28;20544;-86
2022/10/27 05:07:51;;;;;;;41.72;9.43;;;;;;;13.87;100.00;98788.47;5092636;28;20039;-88
2022/10/27 05:10:17;;;;;;;43.25;8.63;;;;;;;13.90;100.00;98800.38;5095614;28;20032;-86
2022/10/27 05:12:42;;;;;;;40.17;9.02;;;;;;;13.89;100.00;98794.31;5095418;28;20024;-88
2022/10/27 05:15:08;;;;;;;42.35;8.88;;;;;;;13.94;100.00;98791.81;5075439;28;20128;-87
2022/10/27 05:17:37;;;;;;;32.05;7.65;;;;;;;13.96;100.00;98792.41;5094781;28;20028;-86
2022/10/27 05:20:04;;;;;;;35.60;7.88;;;;;;;13.93;100.00;98798.13;5094578;28;20036;-86
2022/10/27 05:22:30;;;;;;;27.30;7.07;;;;;;;13.93;100.00;98789.38;5093672;28;20028;-87
2022/10/27 05:24:55;;;;;;;40.72;8.55;;;;;;;13.89;100.00;98788.22;5094232;28;20032;-88
2022/10/27 05:27:21;;;;;;;31.42;7.75;;;;;;;13.94;100.00;98791.81;5110189;28;20070;-86
2022/10/27 05:29:46;;;;;;;41.55;8.50;;;;;;;13.90;100.00;98798.56;5095090;28;20044;-88
2022/10/27 05:32:12;;;;;;;48.67;10.20;;;;;;;13.90;100.00;98789.84;5093689;28;20039;-86
2022/10/27 05:34:38;;;;;;;33.63;9.35;;;;;;;13.90;100.00;98785.38;5092887;28;20473;-88
2022/10/27 05:37:03;;;;;;;45.97;9.10;;;;;;;13.85;100.00;98782.56;5094147;28;20533;-88
2022/10/27 05:39:29;;;;;;;43.67;10.80;;;;;;;13.90;100.00;98774.81;5093193;28;20042;-87
2022/10/27 05:41:54;;;;;;;28.23;7.50;;;;;;;13.89;100.00;98773.22;5092571;28;20468;-87
2022/10/27 05:44:20;;;;;;;46.25;10.48;;;;;;;13.88;100.00;98778.69;5092703;28;20110;-87
2022/10/27 05:46:45;;;;;;;28.83;8.02;;;;;;;13.87;100.00;98769.19;5094268;28;20051;-88
2022/10/27 05:49:11;;;;;;;36.50;8.35;;;;;;;13.85;100.00;98772.84;5094688;28;20034;-88
2022/10/27 05:51:36;;;;;;;46.97;8.07;;;;;;;13.90;100.00;98768.72;5092283;28;20436;-86
2022/10/27 05:54:02;;;;;;;36.92;8.00;;;;;;;13.90;100.00;98776.66;5094176;28;20024;-87
2022/10/27 05:56:28;;;;;;;29.75;7.72;;;;;;;13.96;100.00;98768.66;5093072;28;20032;-88
2022/10/27 05:58:54;;;;;;;25.48;8.18;;;;;;;13.99;100.00;98767.41;5093785;28;20039;-87
2022/10/27 06:01:20;;;;;;;34.45;7.70;;;;;;;14.02;100.00;98766.13;5095497;28;20031;-88
2022/10/27 06:03:45;;;;;;;37.25;9.13;;;;;;;14.03;100.00;98773.84;5109283;28;20028;-88
2022/10/27 06:06:11;;;;;;;29.25;7.85;;;;;;;14.01;100.00;98775.91;5095258;28;20036;-87
2022/10/27 06:08:36;;;;;;;34.05;9.68;;;;;;;14.05;100.00;98771.78;5110335;28;20069;-90
2022/10/27 06:11:02;;;;;;;30.50;8.38;;;;;;;14.04;100.00;98769.34;5094751;28;20039;-88
2022/10/27 06:13:29;;;;;;;36.35;9.73;;;;;;;14.03;100.00;98770.38;5093611;28;20028;-88
2022/10/27 06:15:55;;;;;;;33.50;10.55;;;;;;;14.04;100.00;98778.09;5093575;28;20430;-87
2022/10/27 06:18:21;;;;;;;24.55;10.15;;;;;;;14.06;100.00;98765.47;5092317;28;20034;-87
2022/10/27 06:20:46;;;;;;;31.65;10.85;;;;;;;14.12;100.00;98766.41;5092416;28;20115;-86
2022/10/27 06:23:12;;;;;;;32.85;11.75;;;;;;;14.09;100.00;98772.94;5093054;28;20053;-88
2022/10/27 06:25:38;;;;;;;34.63;12.48;;;;;;;14.09;100.00;98762.38;5093501;28;20409;-90
2022/10/27 06:28:04;;;;;;;28.02;11.93;;;;;;;14.14;100.00;98772.28;5093380;28;20126;-87
2022/10/27 06:30:30;;;;;;;33.53;12.55;;;;;;;14.16;100.00;98772.84;5094760;28;20038;-89
2022/10/27 06:32:55;;;;;;;35.92;12.43;;;;;;;14.16;100.00;98772.06;5076704;28;20032;-87
2022/10/27 06:35:21;;;;;;;30.77;12.57;;;;;;;14.19;100.00;98779.53;5091998;28;20096;-88
2022/10/27 06:37:47;;;;;;;25.88;11.68;;;;;;;14.23;100.00;98768.28;5094671;28;20032;-87
2022/10/27 06:40:15;;;;;;;28.77;12.73;;;;;;;14.29;100.00;98777.13;5094731;28;20488;-87
2022/10/27 06:42:42;;;;;;;28.65;12.45;;;;;;;14.22;100.00;98760.59;5094599;28;20039;-89
2022/10/27 06:45:08;;;;;;;25.17;11.40;;;;;;;14.32;100.00;98774.03;5076909;28;20032;-87
2022/10/27 06:47:33;;;;;;;29.45;13.45;;;;;;;14.23;100.00;98767.47;5076910;28;20036;-87
2022/10/27 06:49:59;;;;;;;28.80;14.80;;;;;;;14.13;100.00;98771.44;5094768;28;20358;-86
2022/10/27 06:52:25;;;;;;;37.03;14.80;;;;;;;14.31;100.00;98772.44;5109581;28;20089;-89
2022/10/27 06:54:51;;;;;;;30.65;14.88;;;;;;;14.34;100.00;98769.34;5097307;28;20032;-89
2022/10/27 06:57:18;;;;;;;32.90;14.48;;;;;;;14.31;100.00;98761.06;5092408;28;21638;-88
2022/10/27 06:59:44;;;;;;;34.83;15.77;;;;;;;14.31;100.00;98761.06;5091498;28;20024;-87
2022/10/27 07:02:11;;;;;;;31.70;15.15;;;;;;;14.28;100.00;98760.50;5074340;28;20115;-88
2022/10/27 07:04:38;;;;;;;25.95;14.30;;;;;;;14.35;100.00;98762.22;5098192;28;20354;-87
2022/10/27 07:07:06;;;;;;;33.58;15.48;;;;;;;14.38;100.00;98770.50;5090878;28;20102;-88
2022/10/27 07:09:32;;;;;;;32.08;15.27;;;;;;;14.36;100.00;98772.56;5095438;28;20043;-87
2022/10/27 07:11:57;;;;;;;42.58;16.20;;;;;;;14.31;100.00;98763.72;5097260;28;20032;-88
2022/10/27 07:14:23;;;;;;;31.02;15.00;;;;;;;14.37;100.00;98760.16;5092772;28;20028;-90
2022/10/27 07:16:48;;;;;;;33.70;16.17;;;;;;;14.39;100.00;98761.56;5098606;28;20084;-89
2022/10/27 07:19:14;;;;;;;35.92;16.08;;;;;;;14.42;100.00;98755.81;5096329;28;20028;-89
2022/10/27 07:21:40;;;;;;;36.00;16.02;;;;;;;14.44;100.00;98766.13;5096321;28;20073;-90
2022/10/27 07:24:06;;;;;;;36.22;15.55;;;;;;;14.48;100.00;98769.16;5095626;28;20024;-90
2022/10/27 07:26:32;;;;;;;36.50;15.07;;;;;;;14.49;100.00;98766.28;5093615;28;20028;-89
2022/10/27 07:28:58;;;;;;;28.83;14.18;;;;;;;14.52;100.00;98765.84;5093691;28;20374;-87
2022/10/27 07:31:23;;;;;;;33.20;15.85;;;;;;;14.52;100.00;98762.38;5092994;28;20053;-87
2022/10/27 07:33:49;;;;;;;29.13;15.52;;;;;;;14.57;100.00;98763.31;5077920;28;20036;-88
2022/10/27 07:36:14;;;;;;;42.08;15.55;;;;;;;14.55;100.00;98754.03;5096836;28;20456;-88
2022/10/27 07:38:40;;;;;;;29.17;15.82;;;;;;;14.56;100.00;98750.34;5098408;28;20031;-89
2022/10/27 07:41:05;;;;;;;29.75;15.63;;;;;;;14.55;100.00;98746.09;5096308;28;20509;-90
2022/10/27 07:43:31;;;;;;;26.00;14.05;;;;;;;14.60;100.00;98748.84;5098463;28;20028;-90
2022/10/27 07:45:57;;;;;;;31.60;14.30;;;;;;;14.64;100.00;98741.25;5095170;28;20028;-89
2022/10/27 07:48:23;;;;;;;29.08;14.52;;;;;;;14.65;100.00;98748.97;5100289;28;20028;-87
2022/10/27 07:50:50;;;;;;;29.17;14.52;;;;;;;14.66;100.00;98734.72;5097973;28;20509;-87
2022/10/27 07:53:16;;;;;;;31.73;14.55;;;;;;;14.70;100.00;98732.44;5093444;28;20024;-88
2022/10/27 07:55:42;;;;;;;24.77;15.00;;;;;;;14.74;100.00;98732.78;5095641;28;20489;-88
2022/10/27 07:58:13;;;;;;;29.95;13.93;;;;;;;14.77;100.00;98724.44;5097319;28;20038;-88
2022/10/27 08:00:41;;;;;;;25.13;13.30;;;;;;;14.73;100.00;98729.34;5096906;28;20039;-87
2022/10/27 08:03:12;;;;;;;23.88;13.23;;;;;;;14.77;100.00;98729.72;5096294;28;20047;-87
2022/10/27 08:05:37;;;;;;;21.38;12.73;;;;;;;14.83;100.00;98723.50;5095477;28;20027;-87
2022/10/27 08:08:05;;;;;;;24.40;13.55;;;;;;;14.81;100.00;98722.94;5096074;28;20032;-87
2022/10/27 08:10:32;;;;;;;25.70;13.13;;;;;;;14.80;100.00;98724.75;5096629;28;20035;-88
2022/10/27 08:12:58;;;;;;;23.67;12.50;;;;;;;14.85;100.00;98726.72;5098014;28;20035;-85
2022/10/27 08:15:26;;;;;;;25.17;12.73;;;;;;;14.83;100.00;98724.28;5096832;28;20386;-87
2022/10/27 08:18:04;;;;;;;21.15;12.75;;;;;;;14.89;100.00;98721.78;5100730;28;20040;-87
2022/10/27 08:20:33;;;;;;;23.20;11.30;;;;;;;14.95;100.00;98720.84;5097088;28;20073;-87
2022/10/27 08:23:01;;;;;;;23.55;12.93;;;;;;;14.88;100.00;98710.41;5097976;28;20489;-88
2022/10/27 08:25:27;;;;;;;25.50;12.88;;;;;;;14.96;100.00;98715.34;5097736;28;20032;-88
2022/10/27 08:27:53;;;;;;;26.15;12.57;;;;;;;14.96;100.00;98707.41;5096173;28;20508;-87
2022/10/27 08:30:19;;;;;;;27.00;13.02;;;;;;;14.99;100.00;98714.88;5094929;28;20050;-87
2022/10/27 08:32:47;;;;;;;23.05;11.75;;;;;;;14.97;100.00;98706.38;5094979;28;20024;-88
2022/10/27 08:35:13;;;;;;;21.67;11.88;;;;;;;15.06;100.00;98708.66;5095688;28;20398;-86
2022/10/27 08:37:39;;;;;;;24.73;12.75;;;;;;;14.99;100.00;98701.66;5093034;28;20124;-85
2022/10/27 08:40:06;;;;;;;23.10;12.70;;;;;;;15.06;100.00;98700.72;5077956;28;20041;-87
2022/10/27 08:43:03;;;;;;;22.92;12.20;;;;;;;15.06;100.00;98701.56;5096383;28;20071;-88
2022/10/27 08:45:33;;;;;;;21.80;11.88;;;;;;;15.08;100.00;98701.31;5095557;28;20020;-86
2022/10/27 08:48:00;;;;;;;22.25;11.38;;;;;;;15.09;100.00;98697.63;5095479;28;20032;-86
2022/10/27 08:50:41;;;;;;;25.98;12.05;;;;;;;15.06;100.00;98696.25;5093989;28;20439;-84
2022/10/27 08:53:12;;;;;;;21.20;11.32;;;;;;;15.15;100.00;98704.63;5096265;28;20120;-85
2022/10/27 08:55:51;;;;;;;19.95;11.35;;;;;;;15.17;100.00;98686.69;5093730;28;20480;-87
2022/10/27 08:58:35;;;;;;;23.00;12.18;;;;;;;15.25;100.00;98680.25;5092474;28;20028;-86
2022/10/27 09:01:27;;;;;;;23.10;12.32;;;;;;;15.31;100.00;98683.78;5094657;28;20035;-86
2022/10/27 09:04:23;;;;;;;20.58;11.48;;;;;;;15.30;100.00;98683.00;5074061;28;20051;-86
2022/10/27 09:07:17;;;;;;;18.40;10.75;;;;;;;15.33;100.00;98671.13;5093736;28;20024;-88
2022/10/27 09:09:57;;;;;;;17.50;10.55;;;;;;;15.46;100.00;98667.41;5093744;28;20035;-88
2022/10/27 09:12:44;;;;;;;18.80;9.98;;;;;;;15.49;100.00;98662.44;5092044;28;20032;-84
2022/10/27 09:15:50;;;;;;;18.05;10.05;;;;;;;15.59;100.00;98653.91;5092103;28;20032;-85
2022/10/27 09:18:19;;;;;;;19.38;10.80;;;;;;;15.70;100.00;98652.22;5049093;28;20076;-84
2022/10/27 09:20:52;;;;;;;23.00;10.88;;;;;;;15.77;100.00;98650.25;5034288;28;20045;-85
2022/10/27 09:23:23;;;;;;;19.73;11.45;;;;;;;15.90;100.00;98651.81;5062517;28;20036;-85
2022/10/27 09:25:59;;;;;;;21.10;11.80;;;;;;;16.06;100.00;98660.03;5092802;28;20036;-85
2022/10/27 09:28:46;;;;;;;22.88;12.57;;;;;;;16.19;100.00;98661.56;5091441;28;20517;-86
2022/10/27 09:31:16;;;;;;;25.95;13.52;;;;;;;16.26;100.00;98665.66;5093144;28;20469;-87
2022/10/27 09:33:51;;;;;;;25.77;13.82;;;;;;;16.33;100.00;98665.50;5073210;28;20028;-87
2022/10/27 09:36:20;;;;;;;22.88;13.38;;;;;;;16.38;100.00;98668.22;5087214;28;20028;-86
2022/10/27 09:38:45;;;;;;;29.65;15.50;;;;;;;16.30;100.00;98667.81;5090418;28;20114;-86
2022/10/27 09:41:11;;;;;;;25.13;15.65;;;;;;;16.44;100.00;98670.94;5096583;28;20122;-85
2022/10/27 09:43:37;;;;;;;25.60;14.68;;;;;;;16.35;100.00;98674.00;5091571;28;20116;-85
2022/10/27 09:46:12;;;;;;;25.75;14.70;;;;;;;16.48;100.00;98677.34;5093393;28;20041;-86
2022/10/27 09:48:38;;;;;;;26.30;14.55;;;;;;;16.58;100.00;98664.25;5092380;28;20058;-85
2022/10/27 09:51:22;;;;;;;23.48;13.65;;;;;;;16.72;100.00;98666.56;5093057;28;20044;-85
2022/10/27 09:53:51;;;;;;;23.10;13.95;;;;;;;16.78;100.00;98668.25;5092204;28;20028;-85
2022/10/27 09:56:34;;;;;;;23.08;13.75;;;;;;;16.99;100.00;98675.44;5091500;28;20054;-85
2022/10/27 09:59:04;;;;;;;25.27;15.02;;;;;;;17.02;100.00;98668.03;5091824;28;20042;-86
2022/10/27 10:01:38;;;;;;;24.40;14.90;;;;;;;17.10;100.00;98668.41;5090205;28;20485;-85
2022/10/27 10:04:16;;;;;;;27.08;16.20;;;;;;;17.19;100.00;98671.44;5093403;28;20119;-82
2022/10/27 10:06:52;;;;;;;30.35;15.82;;;;;;;17.26;100.00;98668.59;5092346;28;20032;-82
2022/10/27 10:09:22;;;;;;;26.05;15.15;;;;;;;17.31;100.00;98673.19;5090555;28;20465;-82
2022/10/27 10:11:48;;;;;;;24.13;15.27;;;;;;;17.13;100.00;98659.97;5093603;28;20039;-82
2022/10/27 10:14:24;;;;;;;28.05;16.10;;;;;;;17.03;100.00;98664.34;5091760;28;20076;-82
2022/10/27 10:16:51;;;;;;;20.15;13.50;;;;;;;17.03;100.00;98661.69;5093032;28;20378;-82
2022/10/27 10:19:18;;;;;;;20.90;14.52;;;;;;;17.08;100.00;98656.44;5092075;28;20028;-83
2022/10/27 10:21:49;;;;;;;24.50;14.80;;;;;;;17.08;100.00;98651.13;5091734;28;20059;-83
2022/10/27 10:24:27;;;;;;;20.45;14.10;;;;;;;16.90;100.00;98652.22;5091643;28;20390;-83
2022/10/27 10:26:55;;;;;;;23.52;14.70;;;;;;;16.83;100.00;98647.09;5091692;28;20023;-82
2022/10/27 10:29:32;;;;;;;23.23;14.15;;;;;;;16.97;100.00;98658.94;5092485;28;20039;-83
2022/10/27 10:32:21;;;;;;;25.83;15.77;;;;;;;16.99;100.00;98651.59;5090252;28;20024;-82
2022/10/27 10:34:47;;;;;;;32.58;19.60;;;;;;;16.99;100.00;98654.22;5108630;28;20119;-83
2022/10/27 10:37:42;;;;;;;28.90;18.25;;;;;;;17.05;100.00;98651.63;5092952;28;20471;-83
2022/10/27 10:40:14;;;;;;;33.72;19.83;;;;;;;16.88;100.00;98652.47;5091615;28;20035;-82
2022/10/27 10:42:48;;;;;;;36.92;20.63;;;;;;;16.81;100.00;98654.50;5075046;28;20032;-82
2022/10/27 10:45:21;;;;;;;;;;;;;;;16.92;100.00;98656.25;5075152;28;20031;-82
2022/10/27 10:47:58;;;;;;;33.17;21.05;;;;;;;16.77;100.00;98642.78;5075068;28;19962;-82
2022/10/27 10:50:24;;;;;;;33.28;20.45;;;;;;;16.94;100.00;98650.69;5090520;28;20032;-82
2022/10/27 10:52:52;;;;;;;32.78;21.52;;;;;;;16.97;100.00;98642.22;5074854;28;20439;-82
2022/10/27 10:55:26;;;;;;;34.05;21.52;;;;;;;17.03;100.00;98632.53;5090034;28;20044;-82
2022/10/27 10:57:55;;;;;;;31.92;21.25;;;;;;;16.83;100.00;98632.00;5074610;28;20055;-81
2022/10/27 11:00:21;;;;;;;33.33;21.50;;;;;;;16.95;100.00;98629.25;5092452;28;20044;-82
2022/10/27 11:03:01;;;;;;;47.92;24.08;;;;;;;16.66;100.00;98620.66;5089914;28;20081;-82
2022/10/27 11:05:30;;;;;;;39.00;23.45;;;;;;;16.83;100.00;98628.53;5074484;28;20047;-83
2022/10/27 11:07:57;;;;;;;35.08;23.48;;;;;;;16.81;100.00;98612.09;5092966;28;20081;-83
2022/10/27 11:10:29;;;;;;;38.20;23.65;;;;;;;16.72;100.00;98619.66;5091302;28;20036;-81
2022/10/27 11:13:18;;;;;;;35.90;23.55;;;;;;;16.73;100.00;98615.19;5090812;28;20481;-82
2022/10/27 11:15:53;;;;;;;38.53;24.08;;;;;;;16.66;100.00;98616.13;5073872;28;20381;-82
2022/10/27 11:18:25;;;;;;;38.72;23.40;;;;;;;16.76;100.00;98625.28;5091174;28;20028;-82
2022/10/27 11:20:56;;;;;;;40.33;24.42;;;;;;;16.77;100.00;98626.88;5074289;28;20039;-82
2022/10/27 11:23:29;;;;;;;45.10;25.58;;;;;;;16.85;100.00;98616.66;5091899;28;20024;-82
2022/10/27 11:26:01;;;;;;;38.38;23.83;;;;;;;17.10;100.00;98630.50;5090578;28;20366;-83
2022/10/27 11:28:36;;;;;;;41.10;25.60;;;;;;;17.21;100.00;98623.47;5092074;28;20036;-82